sensor_id;sensor_type;location;lat;lon;timestamp;pressure;altitude;pressure_sealevel;temperature;humidity
11444;BME280;5778;47.856;12.154;2023-02-28T00:01:33;96768.44;;;-2.05;100.00
11444;BME280;5778;47.856;12.154;2023-02-28T00:04:02;96771.69;;;-2.11;100.00
11444;BME280;5778;47.856;12.154;2023-02-28T00:06:32;96763.22;;;-2.05;100.00
11444;BME280;5778;47.856;12.154;2023-02-28T00:08:59;96766.47;;;-2.03;100.00
11444;BME280;5778;47.856;12.154;2023-02-28T00:11:28;96758.50;;;-2.01;100.00
11444;BME280;5778;47.856;12.154;2023-02-28T00:13:56;96764.03;;;-2.12;100.00
11444;BME280;5778;47.856;12.154;2023-02-28T00:16:23;96752.47;;;-2.18;100.00
11444;BME280;5778;47.856;12.154;2023-02-28T00:18:50;96760.28;;;-2.18;100.00
11444;BME280;5778;47.856;12.154;2023-02-28T00:21:19;96756.53;;;-2.15;100.00
11444;BME280;5778;47.856;12.154;2023-02-28T00:23:50;96762.88;;;-2.18;100.00
11444;BME280;5778;47.856;12.154;2023-02-28T00:26:18;96759.97;;;-2.39;100.00
11444;BME280;5778;47.856;12.154;2023-02-28T00:28:47;96759.31;;;-2.33;100.00
11444;BME280;5778;47.856;12.154;2023-02-28T00:31:14;96759.63;;;-2.52;100.00
11444;BME280;5778;47.856;12.154;2023-02-28T00:33:42;96759.94;;;-2.63;100.00
11444;BME280;5778;47.856;12.154;2023-02-28T00:36:11;96760.44;;;-2.51;100.00
11444;BME280;5778;47.856;12.154;2023-02-28T00:38:39;96767.09;;;-2.65;100.00
11444;BME280;5778;47.856;12.154;2023-02-28T00:41:08;96763.31;;;-2.78;100.00
11444;BME280;5778;47.856;12.154;2023-02-28T00:43:39;96758.47;;;-2.65;100.00
11444;BME280;5778;47.856;12.154;2023-02-28T00:46:07;96764.50;;;-2.65;100.00
11444;BME280;5778;47.856;12.154;2023-02-28T00:48:35;96755.69;;;-2.64;100.00
11444;BME280;5778;47.856;12.154;2023-02-28T00:51:03;96753.59;;;-2.68;100.00
11444;BME280;5778;47.856;12.154;2023-02-28T00:53:30;96754.38;;;-2.68;100.00
11444;BME280;5778;47.856;12.154;2023-02-28T00:56:02;96752.38;;;-2.98;100.00
11444;BME280;5778;47.856;12.154;2023-02-28T00:58:32;96747.84;;;-2.88;100.00
11444;BME280;5778;47.856;12.154;2023-02-28T01:01:00;96747.34;;;-2.91;100.00
11444;BME280;5778;47.856;12.154;2023-02-28T01:03:27;96746.19;;;-2.89;100.00
11444;BME280;5778;47.856;12.154;2023-02-28T01:05:54;96738.34;;;-3.13;100.00
11444;BME280;5778;47.856;12.154;2023-02-28T01:08:21;96739.47;;;-3.15;100.00
11444;BME280;5778;47.856;12.154;2023-02-28T01:10:50;96732.09;;;-3.36;100.00
11444;BME280;5778;47.856;12.154;2023-02-28T01:13:17;96739.53;;;-3.41;100.00
11444;BME280;5778;47.856;12.154;2023-02-28T01:15:49;96735.97;;;-3.40;100.00
11444;BME280;5778;47.856;12.154;2023-02-28T01:18:18;96736.78;;;-3.39;100.00
11444;BME280;5778;47.856;12.154;2023-02-28T01:20:46;96737.22;;;-3.52;100.00
11444;BME280;5778;47.856;12.154;2023-02-28T01:23:13;96735.59;;;-3.53;100.00
11444;BME280;5778;47.856;12.154;2023-02-28T01:25:40;96731.53;;;-3.47;100.00
11444;BME280;5778;47.856;12.154;2023-02-28T01:28:11;96737.69;;;-3.56;100.00
11444;BME280;5778;47.856;12.154;2023-02-28T01:30:39;96732.72;;;-3.42;100.00
11444;BME280;5778;47.856;12.154;2023-02-28T01:33:11;96734.38;;;-3.66;100.00
11444;BME280;5778;47.856;12.154;2023-02-28T01:35:38;96735.00;;;-3.72;100.00
11444;BME280;5778;47.856;12.154;2023-02-28T01:38:07;96728.38;;;-3.67;100.00
11444;BME280;5778;47.856;12.154;2023-02-28T01:40:35;96736.66;;;-3.63;100.00
11444;BME280;5778;47.856;12.154;2023-02-28T01:43:02;96732.47;;;-3.90;100.00
11444;BME280;5778;47.856;12.154;2023-02-28T01:45:31;96730.56;;;-3.80;100.00
11444;BME280;5778;47.856;12.154;2023-02-28T01:48:02;96729.25;;;-3.84;100.00
11444;BME280;5778;47.856;12.154;2023-02-28T01:50:36;96728.00;;;-4.05;100.00
11444;BME280;5778;47.856;12.154;2023-02-28T01:53:08;96729.88;;;-3.90;100.00
11444;BME280;5778;47.856;12.154;2023-02-28T01:55:37;96729.75;;;-4.06;100.00
11444;BME280;5778;47.856;12.154;2023-02-28T01:58:08;96722.63;;;-4.04;100.00
11444;BME280;5778;47.856;12.154;2023-02-28T02:00:36;96729.81;;;-3.98;100.00
11444;BME280;5778;47.856;12.154;2023-02-28T02:03:09;96725.66;;;-3.91;100.00
11444;BME280;5778;47.856;12.154;2023-02-28T02:05:40;96716.97;;;-4.25;100.00
11444;BME280;5778;47.856;12.154;2023-02-28T02:08:10;96712.44;;;-4.23;100.00
11444;BME280;5778;47.856;12.154;2023-02-28T02:10:41;96727.94;;;-4.31;100.00
11444;BME280;5778;47.856;12.154;2023-02-28T02:16:20;96727.16;;;-4.06;100.00
11444;BME280;5778;47.856;12.154;2023-02-28T02:18:54;96715.19;;;-3.99;100.00
11444;BME280;5778;47.856;12.154;2023-02-28T02:21:47;96713.97;;;-4.12;100.00
11444;BME280;5778;47.856;12.154;2023-02-28T02:24:49;96714.13;;;-4.14;100.00
11444;BME280;5778;47.856;12.154;2023-02-28T02:27:33;96711.44;;;-4.47;100.00
11444;BME280;5778;47.856;12.154;2023-02-28T02:30:26;96712.78;;;-4.43;100.00
11444;BME280;5778;47.856;12.154;2023-02-28T02:33:17;96716.19;;;-4.43;100.00
11444;BME280;5778;47.856;12.154;2023-02-28T02:35:54;96715.91;;;-4.57;100.00
11444;BME280;5778;47.856;12.154;2023-02-28T02:38:33;96725.19;;;-4.55;100.00
11444;BME280;5778;47.856;12.154;2023-02-28T02:41:08;96718.22;;;-4.54;100.00
11444;BME280;5778;47.856;12.154;2023-02-28T02:43:43;96714.94;;;-4.56;100.00
11444;BME280;5778;47.856;12.154;2023-02-28T02:46:18;96714.50;;;-4.52;100.00
11444;BME280;5778;47.856;12.154;2023-02-28T02:48:48;96708.78;;;-4.55;100.00
11444;BME280;5778;47.856;12.154;2023-02-28T02:51:20;96708.94;;;-4.57;100.00
11444;BME280;5778;47.856;12.154;2023-02-28T02:53:51;96716.50;;;-4.46;100.00
11444;BME280;5778;47.856;12.154;2023-02-28T02:56:27;96716.53;;;-4.38;100.00
11444;BME280;5778;47.856;12.154;2023-02-28T02:59:00;96716.75;;;-4.74;100.00
11444;BME280;5778;47.856;12.154;2023-02-28T03:01:31;96710.94;;;-4.68;100.00
11444;BME280;5778;47.856;12.154;2023-02-28T03:04:01;96710.66;;;-4.83;100.00
11444;BME280;5778;47.856;12.154;2023-02-28T03:06:30;96712.75;;;-4.86;100.00
11444;BME280;5778;47.856;12.154;2023-02-28T03:08:59;96715.84;;;-4.83;100.00
11444;BME280;5778;47.856;12.154;2023-02-28T03:11:27;96712.19;;;-4.72;100.00
11444;BME280;5778;47.856;12.154;2023-02-28T03:17:00;96708.44;;;-4.78;100.00
11444;BME280;5778;47.856;12.154;2023-02-28T03:19:45;96715.19;;;-5.02;100.00
11444;BME280;5778;47.856;12.154;2023-02-28T03:22:23;96713.00;;;-5.07;100.00
11444;BME280;5778;47.856;12.154;2023-02-28T03:25:04;96716.94;;;-5.03;100.00
11444;BME280;5778;47.856;12.154;2023-02-28T03:27:39;96720.06;;;-5.17;100.00
11444;BME280;5778;47.856;12.154;2023-02-28T03:30:10;96718.50;;;-5.10;100.00
11444;BME280;5778;47.856;12.154;2023-02-28T03:32:47;96714.94;;;-5.09;100.00
11444;BME280;5778;47.856;12.154;2023-02-28T03:35:22;96712.31;;;-5.26;100.00
11444;BME280;5778;47.856;12.154;2023-02-28T03:37:56;96706.53;;;-5.20;100.00
11444;BME280;5778;47.856;12.154;2023-02-28T03:40:30;96708.22;;;-5.29;100.00
11444;BME280;5778;47.856;12.154;2023-02-28T03:43:07;96707.75;;;-5.15;100.00
11444;BME280;5778;47.856;12.154;2023-02-28T03:45:37;96711.94;;;-5.31;100.00
11444;BME280;5778;47.856;12.154;2023-02-28T03:48:09;96714.31;;;-5.38;100.00
11444;BME280;5778;47.856;12.154;2023-02-28T03:50:39;96717.41;;;-5.34;100.00
11444;BME280;5778;47.856;12.154;2023-02-28T03:53:12;96720.06;;;-5.44;100.00
11444;BME280;5778;47.856;12.154;2023-02-28T03:55:44;96713.53;;;-5.48;100.00
11444;BME280;5778;47.856;12.154;2023-02-28T03:58:17;96722.28;;;-5.49;100.00
11444;BME280;5778;47.856;12.154;2023-02-28T04:00:50;96727.16;;;-5.46;100.00
11444;BME280;5778;47.856;12.154;2023-02-28T04:03:19;96722.09;;;-5.38;100.00
11444;BME280;5778;47.856;12.154;2023-02-28T04:05:50;96728.16;;;-5.29;100.00
11444;BME280;5778;47.856;12.154;2023-02-28T04:08:19;96725.44;;;-5.28;100.00
11444;BME280;5778;47.856;12.154;2023-02-28T04:10:51;96732.91;;;-5.52;100.00
11444;BME280;5778;47.856;12.154;2023-02-28T04:13:20;96738.19;;;-5.71;100.00
11444;BME280;5778;47.856;12.154;2023-02-28T04:15:48;96739.69;;;-5.78;100.00
11444;BME280;5778;47.856;12.154;2023-02-28T04:18:14;96740.09;;;-5.73;100.00
11444;BME280;5778;47.856;12.154;2023-02-28T04:20:41;96741.06;;;-5.47;100.00
11444;BME280;5778;47.856;12.154;2023-02-28T04:23:08;96742.31;;;-5.24;100.00
11444;BME280;5778;47.856;12.154;2023-02-28T04:25:37;96741.44;;;-5.15;100.00
11444;BME280;5778;47.856;12.154;2023-02-28T04:28:06;96744.41;;;-5.10;100.00
11444;BME280;5778;47.856;12.154;2023-02-28T04:30:33;96748.56;;;-4.99;100.00
11444;BME280;5778;47.856;12.154;2023-02-28T04:33:00;96741.91;;;-5.02;100.00
11444;BME280;5778;47.856;12.154;2023-02-28T04:35:27;96749.97;;;-4.87;100.00
11444;BME280;5778;47.856;12.154;2023-02-28T04:37:54;96744.53;;;-4.84;100.00
11444;BME280;5778;47.856;12.154;2023-02-28T04:40:21;96743.59;;;-5.10;100.00
11444;BME280;5778;47.856;12.154;2023-02-28T04:42:49;96740.88;;;-5.09;100.00
11444;BME280;5778;47.856;12.154;2023-02-28T04:45:16;96742.50;;;-5.08;100.00
11444;BME280;5778;47.856;12.154;2023-02-28T04:47:45;96748.34;;;-4.88;100.00
11444;BME280;5778;47.856;12.154;2023-02-28T04:50:12;96752.97;;;-4.82;100.00
11444;BME280;5778;47.856;12.154;2023-02-28T04:52:39;96746.69;;;-5.07;100.00
11444;BME280;5778;47.856;12.154;2023-02-28T04:55:07;96750.75;;;-4.95;100.00
11444;BME280;5778;47.856;12.154;2023-02-28T04:57:34;96752.84;;;-5.08;100.00
11444;BME280;5778;47.856;12.154;2023-02-28T05:00:05;96746.91;;;-5.45;100.00
11444;BME280;5778;47.856;12.154;2023-02-28T05:02:37;96749.69;;;-5.83;100.00
11444;BME280;5778;47.856;12.154;2023-02-28T05:05:05;96749.88;;;-5.67;100.00
11444;BME280;5778;47.856;12.154;2023-02-28T05:07:36;96750.97;;;-5.60;100.00
11444;BME280;5778;47.856;12.154;2023-02-28T05:10:05;96756.13;;;-5.60;100.00
11444;BME280;5778;47.856;12.154;2023-02-28T05:12:35;96763.22;;;-5.62;100.00
11444;BME280;5778;47.856;12.154;2023-02-28T05:15:04;96760.09;;;-5.65;100.00
11444;BME280;5778;47.856;12.154;2023-02-28T05:17:31;96761.91;;;-5.66;100.00
11444;BME280;5778;47.856;12.154;2023-02-28T05:19:59;96769.09;;;-5.69;100.00
11444;BME280;5778;47.856;12.154;2023-02-28T05:22:27;96774.84;;;-5.75;100.00
11444;BME280;5778;47.856;12.154;2023-02-28T05:24:55;96764.66;;;-5.77;100.00
11444;BME280;5778;47.856;12.154;2023-02-28T05:27:22;96767.06;;;-5.66;100.00
11444;BME280;5778;47.856;12.154;2023-02-28T05:29:50;96771.44;;;-5.66;100.00
11444;BME280;5778;47.856;12.154;2023-02-28T05:32:19;96773.31;;;-5.59;100.00
11444;BME280;5778;47.856;12.154;2023-02-28T05:34:46;96772.44;;;-5.77;100.00
11444;BME280;5778;47.856;12.154;2023-02-28T05:37:13;96769.66;;;-5.75;100.00
11444;BME280;5778;47.856;12.154;2023-02-28T05:39:41;96775.53;;;-5.73;100.00
11444;BME280;5778;47.856;12.154;2023-02-28T05:42:09;96775.47;;;-5.54;100.00
11444;BME280;5778;47.856;12.154;2023-02-28T05:47:43;96777.44;;;-5.75;100.00
11444;BME280;5778;47.856;12.154;2023-02-28T05:50:11;96788.28;;;-5.53;100.00
11444;BME280;5778;47.856;12.154;2023-02-28T05:52:41;96793.75;;;-5.29;100.00
11444;BME280;5778;47.856;12.154;2023-02-28T05:55:09;96796.06;;;-5.26;100.00
11444;BME280;5778;47.856;12.154;2023-02-28T05:57:36;96803.47;;;-5.04;100.00
11444;BME280;5778;47.856;12.154;2023-02-28T06:00:04;96807.78;;;-4.95;100.00
11444;BME280;5778;47.856;12.154;2023-02-28T06:03:14;96810.84;;;-4.82;100.00
11444;BME280;5778;47.856;12.154;2023-02-28T06:05:41;96818.63;;;-4.82;100.00
11444;BME280;5778;47.856;12.154;2023-02-28T06:08:10;96818.38;;;-4.88;100.00
11444;BME280;5778;47.856;12.154;2023-02-28T06:10:37;96815.16;;;-4.55;100.00
11444;BME280;5778;47.856;12.154;2023-02-28T06:13:07;96817.81;;;-4.65;100.00
11444;BME280;5778;47.856;12.154;2023-02-28T06:15:34;96817.81;;;-4.65;100.00
11444;BME280;5778;47.856;12.154;2023-02-28T06:18:02;96816.22;;;-4.48;100.00
11444;BME280;5778;47.856;12.154;2023-02-28T06:20:31;96826.09;;;-4.52;100.00
11444;BME280;5778;47.856;12.154;2023-02-28T06:23:01;96824.22;;;-4.42;100.00
11444;BME280;5778;47.856;12.154;2023-02-28T06:25:28;96823.78;;;-4.37;100.00
11444;BME280;5778;47.856;12.154;2023-02-28T06:27:55;96835.13;;;-4.38;100.00
11444;BME280;5778;47.856;12.154;2023-02-28T06:30:23;96836.75;;;-4.20;100.00
11444;BME280;5778;47.856;12.154;2023-02-28T06:32:52;96837.72;;;-4.21;100.00
11444;BME280;5778;47.856;12.154;2023-02-28T06:35:23;96834.75;;;-3.91;100.00
11444;BME280;5778;47.856;12.154;2023-02-28T06:37:53;96835.63;;;-4.00;100.00
11444;BME280;5778;47.856;12.154;2023-02-28T06:40:21;96840.31;;;-4.03;100.00
11444;BME280;5778;47.856;12.154;2023-02-28T06:42:49;96844.53;;;-4.02;100.00
11444;BME280;5778;47.856;12.154;2023-02-28T06:45:17;96848.16;;;-3.95;100.00
11444;BME280;5778;47.856;12.154;2023-02-28T06:47:45;96854.59;;;-3.82;100.00
11444;BME280;5778;47.856;12.154;2023-02-28T06:50:17;96852.81;;;-3.64;100.00
11444;BME280;5778;47.856;12.154;2023-02-28T06:52:53;96858.00;;;-3.64;100.00
11444;BME280;5778;47.856;12.154;2023-02-28T06:55:21;96850.63;;;-3.68;100.00
11444;BME280;5778;47.856;12.154;2023-02-28T06:57:48;96859.56;;;-3.71;100.00
11444;BME280;5778;47.856;12.154;2023-02-28T07:00:17;96860.72;;;-3.48;100.00
11444;BME280;5778;47.856;12.154;2023-02-28T07:02:49;96858.78;;;-3.38;100.00
11444;BME280;5778;47.856;12.154;2023-02-28T07:05:20;96848.97;;;-2.93;100.00
11444;BME280;5778;47.856;12.154;2023-02-28T07:07:50;96860.38;;;-2.86;100.00
11444;BME280;5778;47.856;12.154;2023-02-28T07:10:19;96857.44;;;-2.91;100.00
11444;BME280;5778;47.856;12.154;2023-02-28T07:12:48;96853.34;;;-2.93;100.00
11444;BME280;5778;47.856;12.154;2023-02-28T07:15:17;96865.56;;;-2.94;100.00
11444;BME280;5778;47.856;12.154;2023-02-28T07:17:44;96860.09;;;-2.83;100.00
11444;BME280;5778;47.856;12.154;2023-02-28T07:20:12;96861.22;;;-2.85;100.00
11444;BME280;5778;47.856;12.154;2023-02-28T07:22:52;96856.19;;;-2.79;100.00
11444;BME280;5778;47.856;12.154;2023-02-28T07:25:25;96857.56;;;-2.59;100.00
11444;BME280;5778;47.856;12.154;2023-02-28T07:27:53;96852.69;;;-2.46;100.00
11444;BME280;5778;47.856;12.154;2023-02-28T07:30:20;96861.84;;;-2.42;100.00
11444;BME280;5778;47.856;12.154;2023-02-28T07:33:25;96853.06;;;-2.25;100.00
11444;BME280;5778;47.856;12.154;2023-02-28T07:36:00;96863.78;;;-2.36;100.00
11444;BME280;5778;47.856;12.154;2023-02-28T07:38:39;96858.94;;;-2.07;100.00
11444;BME280;5778;47.856;12.154;2023-02-28T07:41:07;96861.22;;;-2.28;100.00
11444;BME280;5778;47.856;12.154;2023-02-28T07:43:39;96862.53;;;-2.08;100.00
11444;BME280;5778;47.856;12.154;2023-02-28T07:46:09;96857.69;;;-1.95;100.00
11444;BME280;5778;47.856;12.154;2023-02-28T07:48:36;96863.56;;;-2.01;100.00
11444;BME280;5778;47.856;12.154;2023-02-28T07:51:03;96858.34;;;-2.01;100.00
11444;BME280;5778;47.856;12.154;2023-02-28T07:53:31;96862.91;;;-1.87;100.00
11444;BME280;5778;47.856;12.154;2023-02-28T07:56:00;96854.25;;;-2.03;100.00
11444;BME280;5778;47.856;12.154;2023-02-28T07:58:29;96861.28;;;-1.88;100.00
11444;BME280;5778;47.856;12.154;2023-02-28T08:00:57;96862.22;;;-2.13;100.00
11444;BME280;5778;47.856;12.154;2023-02-28T08:03:32;96865.78;;;-2.22;100.00
11444;BME280;5778;47.856;12.154;2023-02-28T08:05:59;96860.75;;;-2.15;100.00
11444;BME280;5778;47.856;12.154;2023-02-28T08:08:28;96863.88;;;-1.88;100.00
11444;BME280;5778;47.856;12.154;2023-02-28T08:10:58;96863.72;;;-1.54;100.00
11444;BME280;5778;47.856;12.154;2023-02-28T08:13:43;96863.22;;;-1.66;100.00
11444;BME280;5778;47.856;12.154;2023-02-28T08:16:11;96855.84;;;-1.22;100.00
11444;BME280;5778;47.856;12.154;2023-02-28T08:18:40;96860.88;;;-1.13;100.00
11444;BME280;5778;47.856;12.154;2023-02-28T08:21:08;96852.38;;;-0.60;100.00
11444;BME280;5778;47.856;12.154;2023-02-28T08:23:38;96855.97;;;-0.61;100.00
11444;BME280;5778;47.856;12.154;2023-02-28T08:26:05;96858.97;;;-0.42;100.00
11444;BME280;5778;47.856;12.154;2023-02-28T08:28:33;96856.09;;;-0.55;100.00
11444;BME280;5778;47.856;12.154;2023-02-28T08:31:07;96867.56;;;-0.64;100.00
11444;BME280;5778;47.856;12.154;2023-02-28T08:33:41;96859.19;;;-0.51;100.00
11444;BME280;5778;47.856;12.154;2023-02-28T08:36:10;96869.19;;;-0.24;100.00
11444;BME280;5778;47.856;12.154;2023-02-28T08:38:38;96866.19;;;-0.13;100.00
11444;BME280;5778;47.856;12.154;2023-02-28T08:41:06;96873.41;;;-0.23;100.00
11444;BME280;5778;47.856;12.154;2023-02-28T08:43:40;96879.28;;;-0.22;100.00
11444;BME280;5778;47.856;12.154;2023-02-28T08:46:11;96876.03;;;-0.01;100.00
11444;BME280;5778;47.856;12.154;2023-02-28T08:48:39;96877.22;;;0.19;100.00
11444;BME280;5778;47.856;12.154;2023-02-28T08:51:09;96878.38;;;0.16;100.00
11444;BME280;5778;47.856;12.154;2023-02-28T08:54:00;96877.34;;;0.25;100.00
11444;BME280;5778;47.856;12.154;2023-02-28T08:56:28;96880.41;;;0.06;100.00
11444;BME280;5778;47.856;12.154;2023-02-28T08:58:56;96887.44;;;0.06;100.00
11444;BME280;5778;47.856;12.154;2023-02-28T09:01:27;96888.78;;;0.47;100.00
11444;BME280;5778;47.856;12.154;2023-02-28T09:03:57;96888.03;;;0.38;100.00
11444;BME280;5778;47.856;12.154;2023-02-28T09:06:26;96890.81;;;0.59;100.00
11444;BME280;5778;47.856;12.154;2023-02-28T09:08:56;96894.00;;;0.47;100.00
11444;BME280;5778;47.856;12.154;2023-02-28T09:11:26;96891.75;;;0.44;100.00
11444;BME280;5778;47.856;12.154;2023-02-28T09:14:15;96897.66;;;0.38;100.00
11444;BME280;5778;47.856;12.154;2023-02-28T09:16:44;96904.19;;;0.42;100.00
11444;BME280;5778;47.856;12.154;2023-02-28T09:19:11;96904.41;;;0.55;100.00
11444;BME280;5778;47.856;12.154;2023-02-28T09:21:41;96913.63;;;0.88;100.00
11444;BME280;5778;47.856;12.154;2023-02-28T09:24:13;96901.53;;;1.01;100.00
11444;BME280;5778;47.856;12.154;2023-02-28T09:26:40;96905.34;;;0.99;100.00
11444;BME280;5778;47.856;12.154;2023-02-28T09:29:08;96907.25;;;1.05;100.00
11444;BME280;5778;47.856;12.154;2023-02-28T09:31:36;96908.41;;;1.17;100.00
11444;BME280;5778;47.856;12.154;2023-02-28T09:37:11;96914.75;;;1.51;100.00
11444;BME280;5778;47.856;12.154;2023-02-28T09:39:38;96918.91;;;1.31;100.00
11444;BME280;5778;47.856;12.154;2023-02-28T09:42:05;96921.16;;;1.49;100.00
11444;BME280;5778;47.856;12.154;2023-02-28T09:44:51;96919.38;;;1.64;100.00
11444;BME280;5778;47.856;12.154;2023-02-28T09:47:24;96925.16;;;0.93;100.00
11444;BME280;5778;47.856;12.154;2023-02-28T09:49:53;96916.56;;;1.22;100.00
11444;BME280;5778;47.856;12.154;2023-02-28T09:52:27;96927.22;;;1.35;100.00
11444;BME280;5778;47.856;12.154;2023-02-28T09:54:57;96935.09;;;0.98;100.00
11444;BME280;5778;47.856;12.154;2023-02-28T09:57:32;96933.75;;;1.02;100.00
11444;BME280;5778;47.856;12.154;2023-02-28T10:00:10;96938.09;;;0.95;100.00
11444;BME280;5778;47.856;12.154;2023-02-28T10:02:58;96938.00;;;1.03;100.00
11444;BME280;5778;47.856;12.154;2023-02-28T10:05:33;96940.56;;;1.11;100.00
11444;BME280;5778;47.856;12.154;2023-02-28T10:08:07;96938.97;;;1.39;100.00
11444;BME280;5778;47.856;12.154;2023-02-28T10:10:39;96927.50;;;1.69;100.00
11444;BME280;5778;47.856;12.154;2023-02-28T10:13:17;96937.06;;;1.91;100.00
11444;BME280;5778;47.856;12.154;2023-02-28T10:15:49;96934.78;;;1.88;100.00
11444;BME280;5778;47.856;12.154;2023-02-28T10:18:22;96937.41;;;1.88;100.00
11444;BME280;5778;47.856;12.154;2023-02-28T10:20:51;96945.47;;;1.72;100.00
11444;BME280;5778;47.856;12.154;2023-02-28T10:23:27;96941.84;;;1.58;100.00
11444;BME280;5778;47.856;12.154;2023-02-28T10:25:59;96938.94;;;1.68;100.00
11444;BME280;5778;47.856;12.154;2023-02-28T10:28:29;96948.66;;;1.53;100.00
11444;BME280;5778;47.856;12.154;2023-02-28T10:30:58;96952.41;;;1.36;100.00
11444;BME280;5778;47.856;12.154;2023-02-28T10:33:29;96957.28;;;1.10;100.00
11444;BME280;5778;47.856;12.154;2023-02-28T10:35:57;96964.28;;;1.46;100.00
11444;BME280;5778;47.856;12.154;2023-02-28T10:38:31;96959.94;;;1.39;100.00
11444;BME280;5778;47.856;12.154;2023-02-28T10:41:10;96967.59;;;1.84;100.00
11444;BME280;5778;47.856;12.154;2023-02-28T10:43:40;96963.63;;;1.88;100.00
11444;BME280;5778;47.856;12.154;2023-02-28T10:46:14;96961.31;;;1.64;100.00
11444;BME280;5778;47.856;12.154;2023-02-28T10:49:01;96961.81;;;1.59;100.00
11444;BME280;5778;47.856;12.154;2023-02-28T10:51:35;96966.97;;;1.38;100.00
11444;BME280;5778;47.856;12.154;2023-02-28T10:54:16;96966.03;;;1.17;100.00
11444;BME280;5778;47.856;12.154;2023-02-28T10:56:44;96961.44;;;0.82;100.00
11444;BME280;5778;47.856;12.154;2023-02-28T10:59:27;96963.44;;;1.46;100.00
11444;BME280;5778;47.856;12.154;2023-02-28T11:01:56;96964.34;;;1.82;100.00
11444;BME280;5778;47.856;12.154;2023-02-28T11:04:37;96958.28;;;1.96;100.00
11444;BME280;5778;47.856;12.154;2023-02-28T11:07:17;96966.44;;;1.57;100.00
11444;BME280;5778;47.856;12.154;2023-02-28T11:09:48;96963.38;;;1.68;100.00
11444;BME280;5778;47.856;12.154;2023-02-28T11:12:21;96962.91;;;1.94;100.00
11444;BME280;5778;47.856;12.154;2023-02-28T11:14:50;96956.75;;;1.87;100.00
11444;BME280;5778;47.856;12.154;2023-02-28T11:17:21;96958.72;;;2.14;100.00
11444;BME280;5778;47.856;12.154;2023-02-28T11:19:51;96952.28;;;2.16;100.00
11444;BME280;5778;47.856;12.154;2023-02-28T11:22:22;96951.59;;;2.08;100.00
11444;BME280;5778;47.856;12.154;2023-02-28T11:24:53;96950.19;;;2.26;100.00
11444;BME280;5778;47.856;12.154;2023-02-28T11:27:26;96952.81;;;2.26;100.00
11444;BME280;5778;47.856;12.154;2023-02-28T11:30:23;96944.72;;;2.28;100.00
11444;BME280;5778;47.856;12.154;2023-02-28T11:33:27;96949.66;;;2.52;100.00
11444;BME280;5778;47.856;12.154;2023-02-28T11:35:57;96952.38;;;2.65;100.00
11444;BME280;5778;47.856;12.154;2023-02-28T11:38:26;96949.84;;;2.99;100.00
11444;BME280;5778;47.856;12.154;2023-02-28T11:41:05;96949.44;;;2.74;100.00
11444;BME280;5778;47.856;12.154;2023-02-28T11:43:46;96953.72;;;2.75;100.00
11444;BME280;5778;47.856;12.154;2023-02-28T11:46:25;96945.84;;;3.03;100.00
11444;BME280;5778;47.856;12.154;2023-02-28T11:49:02;96945.53;;;3.40;100.00
11444;BME280;5778;47.856;12.154;2023-02-28T11:51:55;96945.38;;;3.82;100.00
11444;BME280;5778;47.856;12.154;2023-02-28T11:54:59;96944.22;;;4.44;100.00
11444;BME280;5778;47.856;12.154;2023-02-28T11:57:51;96943.44;;;4.76;100.00
11444;BME280;5778;47.856;12.154;2023-02-28T12:00:33;96938.94;;;4.51;100.00
11444;BME280;5778;47.856;12.154;2023-02-28T12:03:20;96935.72;;;4.62;100.00
11444;BME280;5778;47.856;12.154;2023-02-28T12:05:54;96934.53;;;4.64;100.00
11444;BME280;5778;47.856;12.154;2023-02-28T12:08:44;96931.13;;;5.09;100.00
11444;BME280;5778;47.856;12.154;2023-02-28T12:11:19;96937.41;;;5.02;100.00
11444;BME280;5778;47.856;12.154;2023-02-28T12:16:57;96932.16;;;5.21;100.00
11444;BME280;5778;47.856;12.154;2023-02-28T12:19:33;96932.31;;;5.33;100.00
11444;BME280;5778;47.856;12.154;2023-02-28T12:22:27;96929.66;;;5.52;100.00
11444;BME280;5778;47.856;12.154;2023-02-28T12:25:09;96922.41;;;5.28;100.00
11444;BME280;5778;47.856;12.154;2023-02-28T12:27:48;96922.50;;;5.92;100.00
11444;BME280;5778;47.856;12.154;2023-02-28T12:30:21;96923.19;;;5.48;100.00
11444;BME280;5778;47.856;12.154;2023-02-28T12:36:07;96915.44;;;5.73;100.00
11444;BME280;5778;47.856;12.154;2023-02-28T12:38:40;96907.53;;;5.66;100.00
11444;BME280;5778;47.856;12.154;2023-02-28T12:41:12;96906.81;;;6.03;100.00
11444;BME280;5778;47.856;12.154;2023-02-28T12:43:46;96903.81;;;5.93;100.00
11444;BME280;5778;47.856;12.154;2023-02-28T12:46:21;96917.72;;;5.11;100.00
11444;BME280;5778;47.856;12.154;2023-02-28T12:48:53;96915.28;;;5.42;100.00
11444;BME280;5778;47.856;12.154;2023-02-28T12:51:23;96914.09;;;5.25;100.00
11444;BME280;5778;47.856;12.154;2023-02-28T12:54:16;96907.81;;;5.06;100.00
11444;BME280;5778;47.856;12.154;2023-02-28T12:56:50;96911.41;;;5.51;100.00
11444;BME280;5778;47.856;12.154;2023-02-28T12:59:25;96895.50;;;5.77;100.00
11444;BME280;5778;47.856;12.154;2023-02-28T13:05:29;96902.75;;;6.45;100.00
11444;BME280;5778;47.856;12.154;2023-02-28T13:08:27;96887.66;;;6.83;100.00
11444;BME280;5778;47.856;12.154;2023-02-28T13:11:00;96889.28;;;7.08;100.00
11444;BME280;5778;47.856;12.154;2023-02-28T13:13:29;96888.38;;;7.21;100.00
11444;BME280;5778;47.856;12.154;2023-02-28T13:16:02;96895.81;;;7.30;100.00
11444;BME280;5778;47.856;12.154;2023-02-28T13:18:35;96888.16;;;7.47;94.93
11444;BME280;5778;47.856;12.154;2023-02-28T13:21:04;96894.44;;;7.46;92.28
11444;BME280;5778;47.856;12.154;2023-02-28T13:23:52;96882.38;;;7.32;88.09
11444;BME280;5778;47.856;12.154;2023-02-28T13:29:37;96881.81;;;7.66;100.00
11444;BME280;5778;47.856;12.154;2023-02-28T13:32:39;96888.81;;;6.93;98.11
11444;BME280;5778;47.856;12.154;2023-02-28T13:38:17;96878.38;;;7.65;100.00
11444;BME280;5778;47.856;12.154;2023-02-28T13:40:48;96883.47;;;7.85;88.21
11444;BME280;5778;47.856;12.154;2023-02-28T13:43:17;96881.38;;;7.87;96.60
11444;BME280;5778;47.856;12.154;2023-02-28T13:46:06;96881.44;;;8.34;87.92
11444;BME280;5778;47.856;12.154;2023-02-28T13:48:35;96881.28;;;8.29;79.73